Time;durP1;ratioP1;P1;durP2;ratioP2;P2;SDS_P1;SDS_P2;PMS_P1;PMS_P2;Temp;Humidity;BMP_temperature;BMP_pressure;BME280_temperature;BME280_humidity;BME280_pressure;Samples;Min_cycle;Max_cycle;Signal;HPM_P1;HPM_P2
2020/12/03 00:01:40;;;;;;;72.95;34.75;;;5.90;99.90;;;;;;4197137;28;20423;-75
2020/12/03 00:03:49;;;;;;;69.60;35.15;;;5.90;99.90;;;;;;4197817;28;20028;-75
2020/12/03 00:06:01;;;;;;;63.35;32.97;;;5.90;99.90;;;;;;4198125;28;20063;-76
2020/12/03 00:08:03;;;;;;;66.00;34.67;;;5.90;99.90;;;;;;4197081;28;20036;-76
2020/12/03 00:10:04;;;;;;;66.55;36.17;;;5.90;99.90;;;;;;4197077;28;20046;-76
2020/12/03 00:12:05;;;;;;;66.45;34.40;;;5.90;99.90;;;;;;4195934;28;20021;-76
2020/12/03 00:14:06;;;;;;;78.78;37.50;;;5.90;99.90;;;;;;4195680;28;20409;-76
2020/12/03 00:16:07;;;;;;;70.88;36.08;;;5.80;99.90;;;;;;4195673;28;20021;-76
2020/12/03 00:18:08;;;;;;;68.50;34.70;;;5.90;99.90;;;;;;4196895;28;20032;-76
2020/12/03 00:20:17;;;;;;;74.40;35.08;;;5.80;99.90;;;;;;4197078;28;20100;-75
2020/12/03 00:22:18;;;;;;;78.22;39.13;;;5.80;99.90;;;;;;4194817;28;20028;-76
2020/12/03 00:24:22;;;;;;;76.97;36.72;;;5.80;99.90;;;;;;4196770;28;20021;-75
2020/12/03 00:26:26;;;;;;;78.28;37.85;;;5.80;99.90;;;;;;4197038;28;20028;-75
2020/12/03 00:28:32;;;;;;;76.32;36.97;;;5.70;99.90;;;;;;4204073;28;20028;-75
2020/12/03 00:30:33;;;;;;;71.35;36.95;;;5.70;99.90;;;;;;4210894;28;20088;-76
2020/12/03 00:32:33;;;;;;;71.88;36.03;;;5.80;99.90;;;;;;4198114;28;20453;-75
2020/12/03 00:34:34;;;;;;;77.15;36.85;;;5.70;99.90;;;;;;4198393;28;20400;-75
2020/12/03 00:36:36;;;;;;;71.82;32.13;;;5.80;99.90;;;;;;4197942;28;20480;-76
2020/12/03 00:38:36;;;;;;;76.93;34.55;;;5.70;99.90;;;;;;4191944;28;20028;-75
2020/12/03 00:40:37;;;;;;;75.32;37.42;;;5.70;99.90;;;;;;4196442;28;20468;-75
2020/12/03 00:42:38;;;;;;;71.38;35.40;;;5.70;99.90;;;;;;4201873;28;20032;-75
2020/12/03 00:44:38;;;;;;;70.72;36.33;;;5.80;99.90;;;;;;4197728;28;20105;-76
2020/12/03 00:46:39;;;;;;;70.93;34.03;;;5.70;99.90;;;;;;4198110;28;20028;-75
2020/12/03 00:48:40;;;;;;;71.10;37.47;;;5.70;99.90;;;;;;4197694;28;20103;-75
2020/12/03 00:50:40;;;;;;;78.80;35.55;;;5.70;99.90;;;;;;4198269;28;20024;-75
2020/12/03 00:52:42;;;;;;;72.15;34.58;;;5.70;99.90;;;;;;4197863;28;20459;-75
2020/12/03 00:54:43;;;;;;;74.63;36.13;;;5.60;99.90;;;;;;4198041;28;20033;-75
2020/12/03 00:56:46;;;;;;;82.13;38.70;;;5.60;99.90;;;;;;4196767;28;20025;-75
2020/12/03 00:58:48;;;;;;;80.65;38.03;;;5.60;99.90;;;;;;4189839;28;20108;-75
2020/12/03 01:00:48;;;;;;;83.07;37.45;;;5.50;99.90;;;;;;4197640;28;20549;-75
2020/12/03 01:02:50;;;;;;;74.13;36.78;;;5.50;99.90;;;;;;4197758;28;20044;-76
2020/12/03 01:04:50;;;;;;;79.43;39.00;;;5.50;99.90;;;;;;4197905;28;20472;-75
2020/12/03 01:06:51;;;;;;;81.13;38.50;;;5.50;99.90;;;;;;4197191;28;20024;-75
2020/12/03 01:08:51;;;;;;;74.30;35.25;;;5.50;99.90;;;;;;4183989;28;20055;-75
2020/12/03 01:10:52;;;;;;;83.03;37.50;;;5.50;99.90;;;;;;4197792;28;20531;-75
2020/12/03 01:12:52;;;;;;;89.80;39.45;;;5.50;99.90;;;;;;4213078;28;20047;-75
2020/12/03 01:14:53;;;;;;;76.97;38.95;;;5.50;99.90;;;;;;4197764;28;20052;-75
2020/12/03 01:16:54;;;;;;;83.78;36.53;;;5.40;99.90;;;;;;4197490;28;20119;-75
2020/12/03 01:18:54;;;;;;;77.25;35.42;;;5.40;99.90;;;;;;4197440;28;20116;-75
2020/12/03 01:20:55;;;;;;;85.18;36.47;;;5.40;99.90;;;;;;4195928;28;20467;-75
2020/12/03 01:22:57;;;;;;;88.40;39.95;;;5.40;99.90;;;;;;4197179;28;20510;-75
2020/12/03 01:24:57;;;;;;;84.55;34.58;;;5.40;99.90;;;;;;4195761;28;20027;-75
2020/12/03 01:26:58;;;;;;;90.00;38.25;;;5.40;99.90;;;;;;4195936;28;20032;-75
2020/12/03 01:28:59;;;;;;;76.53;35.97;;;5.30;99.90;;;;;;4198507;28;20544;-75
2020/12/03 01:31:03;;;;;;;86.93;38.88;;;5.30;99.90;;;;;;4184061;28;20028;-75
2020/12/03 01:33:04;;;;;;;88.45;39.45;;;5.30;99.90;;;;;;4212215;28;20016;-75
2020/12/03 01:35:06;;;;;;;82.88;34.03;;;5.30;99.90;;;;;;4197482;28;20610;-75
2020/12/03 01:37:07;;;;;;;77.82;35.95;;;5.30;99.90;;;;;;4193603;28;20039;-75
2020/12/03 01:39:09;;;;;;;85.43;40.58;;;5.30;99.90;;;;;;4209763;28;20102;-75
2020/12/03 01:41:10;;;;;;;92.80;36.72;;;5.30;99.90;;;;;;4195678;28;20075;-75
2020/12/03 01:43:10;;;;;;;80.10;37.80;;;5.30;99.90;;;;;;4194418;28;20024;-75
2020/12/03 01:45:50;;;;;;;84.32;36.67;;;5.30;99.90;;;;;;4197139;28;20028;-75
2020/12/03 01:47:50;;;;;;;82.95;34.80;;;5.30;99.90;;;;;;4197140;28;20020;-75
2020/12/03 01:49:52;;;;;;;82.22;36.33;;;5.30;99.90;;;;;;4196837;28;20597;-76
2020/12/03 01:51:54;;;;;;;71.13;30.88;;;5.30;99.90;;;;;;4197168;28;20025;-76
2020/12/03 01:54:06;;;;;;;73.95;33.95;;;5.30;99.90;;;;;;4196794;28;20361;-75
2020/12/03 01:56:25;;;;;;;74.65;32.15;;;5.40;99.90;;;;;;4211436;28;20024;-76
2020/12/03 01:58:39;;;;;;;80.85;35.58;;;5.30;99.90;;;;;;4187387;28;20049;-76
2020/12/03 02:00:40;;;;;;;76.57;34.72;;;5.30;99.90;;;;;;4195371;28;20115;-75
2020/12/03 02:02:45;;;;;;;76.55;34.75;;;5.30;99.90;;;;;;4193795;28;20083;-75
2020/12/03 02:05:09;;;;;;;75.45;31.15;;;5.30;99.90;;;;;;4194026;28;20071;-76
2020/12/03 02:07:13;;;;;;;63.80;31.70;;;5.40;99.90;;;;;;4195072;28;20082;-75
2020/12/03 02:09:13;;;;;;;;;;;5.40;99.90;;;;;;4195660;28;20032;-76
2020/12/03 02:11:16;;;;;;;75.35;30.48;;;5.30;99.90;;;;;;4195054;28;20363;-76
2020/12/03 02:13:19;;;;;;;70.43;32.50;;;5.30;99.90;;;;;;4195347;28;20074;-75
2020/12/03 02:15:21;;;;;;;70.75;30.48;;;5.30;99.90;;;;;;4194919;28;20024;-76
2020/12/03 02:17:22;;;;;;;66.75;30.55;;;5.40;99.90;;;;;;4193920;28;20047;-75
2020/12/03 02:19:29;;;;;;;63.47;29.65;;;5.40;99.90;;;;;;4195142;28;20483;-76
2020/12/03 02:21:30;;;;;;;57.67;27.35;;;5.40;99.90;;;;;;4194083;28;20543;-75
2020/12/03 02:23:30;;;;;;;52.45;28.58;;;5.40;99.90;;;;;;4196223;28;20044;-75
2020/12/03 02:25:31;;;;;;;50.75;24.65;;;5.50;99.90;;;;;;4195039;28;20035;-75
2020/12/03 02:27:32;;;;;;;49.90;22.67;;;5.50;99.90;;;;;;4194838;28;20438;-75
2020/12/03 02:29:33;;;;;;;57.08;27.52;;;5.40;99.90;;;;;;4185260;28;20080;-75
2020/12/03 02:31:34;;;;;;;59.80;26.40;;;5.40;99.90;;;;;;4196540;28;20036;-75
2020/12/03 02:33:35;;;;;;;53.17;26.67;;;5.40;99.90;;;;;;4195045;28;20029;-75
2020/12/03 02:35:35;;;;;;;47.47;22.63;;;5.40;99.90;;;;;;4195082;28;20024;-75
2020/12/03 02:37:36;;;;;;;48.97;26.27;;;5.40;99.90;;;;;;4195970;28;20036;-75
2020/12/03 02:39:38;;;;;;;50.95;26.02;;;5.40;99.90;;;;;;4195071;28;20024;-76
2020/12/03 02:41:38;;;;;;;48.03;24.92;;;5.40;99.90;;;;;;4196093;28;20048;-75
2020/12/03 02:43:39;;;;;;;47.05;24.50;;;5.40;99.90;;;;;;4196433;28;20357;-75
2020/12/03 02:45:40;;;;;;;50.70;24.42;;;5.40;99.90;;;;;;4194307;28;20028;-75
2020/12/03 02:47:41;;;;;;;45.20;26.15;;;5.50;99.90;;;;;;4196373;28;20085;-75
2020/12/03 02:49:41;;;;;;;52.28;25.60;;;5.50;99.90;;;;;;4182811;28;20055;-75
2020/12/03 02:51:42;;;;;;;49.42;25.80;;;5.50;99.90;;;;;;4195524;28;20430;-75
2020/12/03 02:53:43;;;;;;;56.88;24.98;;;5.40;99.90;;;;;;4196173;28;20043;-75
2020/12/03 02:55:44;;;;;;;48.88;25.35;;;5.40;99.90;;;;;;4196334;28;20048;-75
2020/12/03 02:57:45;;;;;;;50.40;25.88;;;5.40;99.90;;;;;;4192575;28;20021;-76
2020/12/03 02:59:46;;;;;;;43.20;23.88;;;5.40;99.90;;;;;;4191834;28;20031;-75
2020/12/03 03:01:46;;;;;;;51.45;25.77;;;5.40;99.90;;;;;;4195817;28;20021;-75
2020/12/03 03:03:47;;;;;;;48.13;22.40;;;5.40;99.90;;;;;;4196309;28;20032;-75
2020/12/03 03:05:47;;;;;;;50.25;24.15;;;5.50;99.90;;;;;;4196083;28;20033;-75
2020/12/03 03:07:49;;;;;;;44.03;22.75;;;5.40;99.90;;;;;;4196256;28;20071;-75
2020/12/03 03:09:50;;;;;;;51.90;25.85;;;5.40;99.90;;;;;;4194827;28;20037;-75
2020/12/03 03:11:51;;;;;;;42.92;22.92;;;5.40;99.90;;;;;;4195915;28;20086;-75
2020/12/03 03:13:52;;;;;;;46.05;24.88;;;5.40;99.90;;;;;;4195741;28;20494;-75
2020/12/03 03:15:52;;;;;;;45.08;23.27;;;5.40;99.90;;;;;;4195038;28;20048;-75
2020/12/03 03:17:53;;;;;;;49.60;26.02;;;5.40;99.90;;;;;;4188748;28;20116;-75
2020/12/03 03:19:53;;;;;;;47.67;26.08;;;5.40;99.90;;;;;;4188194;28;20017;-75
2020/12/03 03:21:55;;;;;;;51.67;26.45;;;5.40;99.90;;;;;;4195933;28;20484;-76
2020/12/03 03:23:56;;;;;;;44.97;24.75;;;5.40;99.90;;;;;;4195625;28;20025;-75
2020/12/03 03:25:57;;;;;;;46.40;25.50;;;5.40;99.90;;;;;;4194596;28;20025;-74
2020/12/03 03:27:57;;;;;;;49.83;24.98;;;5.40;99.90;;;;;;4190856;28;20395;-75
2020/12/03 03:29:58;;;;;;;46.75;24.48;;;5.40;99.90;;;;;;4188150;28;20032;-75
2020/12/03 03:31:59;;;;;;;48.92;25.88;;;5.30;99.90;;;;;;4194745;28;20044;-75
2020/12/03 03:33:59;;;;;;;52.53;26.83;;;5.30;99.90;;;;;;4196010;28;20039;-76
2020/12/03 03:36:00;;;;;;;47.53;24.50;;;5.30;99.90;;;;;;4194408;28;20029;-76
2020/12/03 03:38:00;;;;;;;47.33;22.90;;;5.30;99.90;;;;;;4189305;28;20025;-78
2020/12/03 03:40:04;;;;;;;50.75;25.33;;;5.30;99.90;;;;;;4194364;28;20111;-76
2020/12/03 03:42:05;;;;;;;40.15;22.02;;;5.30;99.90;;;;;;4189752;28;20202;-75
2020/12/03 03:44:05;;;;;;;43.88;23.27;;;5.30;99.90;;;;;;4201485;28;20032;-75
2020/12/03 03:46:06;;;;;;;56.67;26.15;;;5.30;99.90;;;;;;4185423;28;20033;-76
2020/12/03 03:48:06;;;;;;;43.72;20.70;;;5.30;99.90;;;;;;4194381;28;20028;-76
2020/12/03 03:50:08;;;;;;;45.92;22.90;;;5.30;99.90;;;;;;4187093;28;20020;-76
2020/12/03 03:52:09;;;;;;;49.33;21.83;;;5.30;99.90;;;;;;4189828;28;20033;-75
2020/12/03 03:54:10;;;;;;;45.13;20.73;;;5.40;99.90;;;;;;4179190;28;20025;-75
2020/12/03 03:56:11;;;;;;;39.05;22.60;;;5.40;99.90;;;;;;4187911;28;20582;-76
2020/12/03 03:58:11;;;;;;;38.50;22.15;;;5.40;99.90;;;;;;4190405;28;20025;-75
2020/12/03 04:00:15;;;;;;;40.85;23.00;;;5.40;99.90;;;;;;4181461;28;20372;-75
2020/12/03 04:02:20;;;;;;;35.40;20.60;;;5.40;99.90;;;;;;4202972;28;20033;-75
2020/12/03 04:04:21;;;;;;;45.47;21.05;;;5.40;99.90;;;;;;4181985;28;20036;-76
2020/12/03 04:06:22;;;;;;;41.60;21.13;;;5.40;99.90;;;;;;4195553;28;20032;-75
2020/12/03 04:08:26;;;;;;;40.65;21.35;;;5.40;99.90;;;;;;4195838;28;20021;-75
2020/12/03 04:10:27;;;;;;;40.08;21.42;;;5.40;99.90;;;;;;4182785;28;20032;-75
2020/12/03 04:12:27;;;;;;;39.83;21.58;;;5.50;99.90;;;;;;4195762;28;20051;-75
2020/12/03 04:14:28;;;;;;;41.55;21.08;;;5.50;99.90;;;;;;4195672;28;20017;-75
2020/12/03 04:16:28;;;;;;;43.97;21.17;;;5.50;99.90;;;;;;4188018;28;20065;-76
2020/12/03 04:18:29;;;;;;;38.20;21.45;;;5.50;99.90;;;;;;4191615;28;20063;-75
2020/12/03 04:20:29;;;;;;;47.30;22.83;;;5.50;99.90;;;;;;4197090;28;20052;-76
2020/12/03 04:22:30;;;;;;;47.65;22.52;;;5.50;99.90;;;;;;4196411;28;20055;-75
2020/12/03 04:24:31;;;;;;;41.33;21.67;;;5.50;99.90;;;;;;4198397;28;20032;-75
2020/12/03 04:26:31;;;;;;;42.92;22.65;;;5.50;99.90;;;;;;4196763;28;20028;-75
2020/12/03 04:28:32;;;;;;;41.58;20.70;;;5.50;99.90;;;;;;4196527;28;20021;-75
2020/12/03 04:30:32;;;;;;;40.13;21.05;;;5.50;99.90;;;;;;4185996;28;20142;-75
2020/12/03 04:32:33;;;;;;;45.35;22.42;;;5.50;99.90;;;;;;4194900;28;20025;-75
2020/12/03 04:34:34;;;;;;;41.60;24.02;;;5.50;99.90;;;;;;4196962;28;20129;-76
2020/12/03 04:36:35;;;;;;;38.42;21.77;;;5.50;99.90;;;;;;4196653;28;20041;-75
2020/12/03 04:38:35;;;;;;;41.75;24.27;;;5.50;99.90;;;;;;4182375;28;20029;-75
2020/12/03 04:40:40;;;;;;;52.75;25.00;;;5.50;99.90;;;;;;4192501;28;20032;-75
2020/12/03 04:42:41;;;;;;;48.60;22.73;;;5.50;99.90;;;;;;4196791;28;20040;-75
2020/12/03 04:44:42;;;;;;;48.95;21.23;;;5.50;99.90;;;;;;4182707;28;20044;-75
2020/12/03 04:46:49;;;;;;;45.55;22.05;;;5.50;99.90;;;;;;4192696;28;20032;-75
2020/12/03 04:49:04;;;;;;;48.88;24.38;;;5.50;99.90;;;;;;4190268;28;20392;-76
2020/12/03 04:51:33;;;;;;;51.05;25.00;;;5.50;99.90;;;;;;4196172;28;20500;-75
2020/12/03 04:54:16;;;;;;;49.33;23.55;;;5.50;99.90;;;;;;4193395;28;20048;-75
2020/12/03 04:56:27;;;;;;;48.78;24.60;;;5.50;99.90;;;;;;4168340;28;20388;-75
2020/12/03 04:58:47;;;;;;;48.42;25.10;;;5.50;99.90;;;;;;4188205;28;20029;-75
2020/12/03 05:01:18;;;;;;;43.38;22.98;;;5.50;99.90;;;;;;4189621;28;20032;-75
2020/12/03 05:03:50;;;;;;;51.95;25.27;;;5.50;99.90;;;;;;4113489;28;20546;-75
2020/12/03 05:06:12;;;;;;;40.60;23.90;;;5.50;99.90;;;;;;4170335;28;20373;-75
2020/12/03 05:08:31;;;;;;;45.85;24.60;;;5.50;99.90;;;;;;4186530;28;20025;-75
2020/12/03 05:10:40;;;;;;;46.65;24.48;;;5.50;99.90;;;;;;4184244;28;20120;-75
2020/12/03 05:12:43;;;;;;;51.85;25.90;;;5.50;99.90;;;;;;4181259;28;20056;-75
2020/12/03 05:14:56;;;;;;;46.72;25.55;;;5.50;99.90;;;;;;4181194;28;20464;-75
2020/12/03 05:17:30;;;;;;;48.85;28.17;;;5.50;99.90;;;;;;4201081;28;20499;-73
2020/12/03 05:20:04;;;;;;;44.08;24.20;;;5.50;99.90;;;;;;4210184;28;20032;-75
2020/12/03 05:22:19;;;;;;;44.47;23.77;;;5.50;99.90;;;;;;4194189;28;20032;-75
2020/12/03 05:24:20;;;;;;;44.58;23.58;;;5.50;99.90;;;;;;4184946;28;20056;-75
2020/12/03 05:26:28;;;;;;;50.30;27.70;;;5.50;99.90;;;;;;4197224;28;23045;-75
2020/12/03 05:28:34;;;;;;;41.88;23.00;;;5.50;99.90;;;;;;4192119;28;20025;-75
2020/12/03 05:30:35;;;;;;;43.67;25.27;;;5.60;99.90;;;;;;4195358;28;20031;-75
2020/12/03 05:32:36;;;;;;;46.70;27.33;;;5.60;99.90;;;;;;4194427;28;20057;-75
2020/12/03 05:34:37;;;;;;;46.38;26.23;;;5.60;99.90;;;;;;4186096;28;20033;-75
2020/12/03 05:37:00;;;;;;;46.92;25.25;;;5.60;99.90;;;;;;4193972;28;20400;-75
2020/12/03 05:39:05;;;;;;;42.53;24.00;;;5.70;99.90;;;;;;4183067;28;20135;-77
2020/12/03 05:41:06;;;;;;;39.88;24.25;;;5.70;99.90;;;;;;4183703;28;20037;-75
2020/12/03 05:43:09;;;;;;;50.15;27.88;;;5.80;99.90;;;;;;4196894;28;20036;-76
2020/12/03 05:45:12;;;;;;;43.10;26.88;;;5.70;99.90;;;;;;4193912;28;20029;-75
2020/12/03 05:47:28;;;;;;;42.45;24.85;;;5.70;99.90;;;;;;4181690;28;20021;-75
2020/12/03 05:49:29;;;;;;;41.38;24.17;;;5.70;99.90;;;;;;4180119;28;20029;-75
2020/12/03 05:51:33;;;;;;;46.92;26.55;;;5.70;99.90;;;;;;4193854;28;20024;-75
2020/12/03 05:53:34;;;;;;;49.72;26.48;;;5.70;99.90;;;;;;4187639;28;20091;-75
2020/12/03 05:55:35;;;;;;;48.97;26.55;;;5.70;99.90;;;;;;4192806;28;20082;-75
2020/12/03 05:57:43;;;;;;;48.60;25.90;;;5.70;99.90;;;;;;4194199;28;20044;-75
2020/12/03 05:59:50;;;;;;;45.28;26.40;;;5.70;99.90;;;;;;4194613;28;20086;-75
2020/12/03 06:01:58;;;;;;;50.03;28.15;;;5.70;99.90;;;;;;4193582;28;20064;-75
2020/12/03 06:04:25;;;;;;;50.90;27.02;;;5.70;99.90;;;;;;4196296;28;20395;-75
2020/12/03 06:07:03;;;;;;;55.17;26.38;;;5.70;99.90;;;;;;4201828;28;20037;-75
2020/12/03 06:09:34;;;;;;;50.60;27.38;;;5.70;99.90;;;;;;4198743;28;20115;-75
2020/12/03 06:11:46;;;;;;;50.80;28.88;;;5.70;99.90;;;;;;4197654;28;20032;-75
2020/12/03 06:13:58;;;;;;;53.85;27.83;;;5.70;99.90;;;;;;4207583;28;20055;-75
2020/12/03 06:16:01;;;;;;;44.85;27.30;;;5.70;99.90;;;;;;4193852;28;20028;-75
2020/12/03 06:18:20;;;;;;;42.67;27.13;;;5.70;99.90;;;;;;4193060;28;20033;-75
2020/12/03 06:20:32;;;;;;;38.60;25.13;;;5.70;99.90;;;;;;4188207;28;20425;-75
2020/12/03 06:23:17;;;;;;;40.90;25.63;;;5.70;99.90;;;;;;4193255;28;20559;-75
2020/12/03 06:25:25;;;;;;;42.50;24.20;;;5.70;99.90;;;;;;4156320;28;20596;-75
2020/12/03 06:27:37;;;;;;;46.88;25.58;;;5.70;99.90;;;;;;4196659;28;20031;-75
2020/12/03 06:29:53;;;;;;;45.78;24.55;;;5.70;99.90;;;;;;4179487;28;20031;-75
2020/12/03 06:32:25;;;;;;;43.13;24.90;;;5.70;99.90;;;;;;4192434;28;20109;-75
2020/12/03 06:34:41;;;;;;;36.88;24.63;;;5.70;99.90;;;;;;4182651;28;20033;-75
2020/12/03 06:36:53;;;;;;;41.70;24.65;;;5.70;99.90;;;;;;4196443;28;20387;-75
2020/12/03 06:39:06;;;;;;;39.28;24.38;;;5.70;99.90;;;;;;4196203;28;20112;-75
2020/12/03 06:41:34;;;;;;;36.75;25.20;;;5.70;99.90;;;;;;4179167;28;20086;-74
2020/12/03 06:43:59;;;;;;;42.60;24.08;;;5.70;99.90;;;;;;4192972;28;20131;-75
2020/12/03 06:46:40;;;;;;;40.15;22.25;;;5.70;99.90;;;;;;4182723;28;20067;-74
2020/12/03 06:49:08;;;;;;;43.30;23.65;;;5.70;99.90;;;;;;4149029;28;20101;-75
2020/12/03 06:51:30;;;;;;;54.72;26.27;;;5.70;99.90;;;;;;4204391;28;20028;-75
2020/12/03 06:53:58;;;;;;;48.97;26.08;;;5.70;99.90;;;;;;4182695;28;20432;-75
2020/12/03 06:56:22;;;;;;;55.85;26.70;;;5.60;99.90;;;;;;4200423;28;20035;-75
2020/12/03 06:58:56;;;;;;;51.83;26.77;;;5.60;99.90;;;;;;4188964;28;20563;-75
2020/12/03 07:01:13;;;;;;;61.72;28.60;;;5.60;99.90;;;;;;4190532;28;20115;-75
2020/12/03 07:03:30;;;;;;;53.42;26.42;;;5.70;99.90;;;;;;4194300;28;20031;-76
2020/12/03 07:06:04;;;;;;;61.35;28.63;;;5.60;99.90;;;;;;4182416;28;20120;-75
2020/12/03 07:08:45;;;;;;;68.60;30.25;;;5.60;99.90;;;;;;4212171;28;20024;-75
2020/12/03 07:11:18;;;;;;;52.35;24.48;;;5.60;99.90;;;;;;4195890;28;20111;-75
2020/12/03 07:13:21;;;;;;;59.38;27.95;;;5.70;99.90;;;;;;4194153;28;20543;-75
2020/12/03 07:15:28;;;;;;;61.47;28.70;;;5.70;99.90;;;;;;4198237;28;20034;-75
2020/12/03 07:17:49;;;;;;;54.63;27.45;;;5.70;99.90;;;;;;4209619;28;20028;-75
2020/12/03 07:20:13;;;;;;;60.40;27.70;;;5.70;99.90;;;;;;4195762;28;20449;-75
2020/12/03 07:22:35;;;;;;;53.58;24.65;;;5.70;99.90;;;;;;4152000;28;20407;-75
2020/12/03 07:24:37;;;;;;;58.85;27.42;;;5.70;99.90;;;;;;4209829;28;20457;-75
2020/12/03 07:26:53;;;;;;;55.80;27.75;;;5.70;99.90;;;;;;4212100;28;20020;-75
2020/12/03 07:28:54;;;;;;;58.17;27.98;;;5.70;99.90;;;;;;4205791;28;20115;-75
2020/12/03 07:30:59;;;;;;;59.00;27.13;;;5.70;99.90;;;;;;4177764;28;20493;-75
2020/12/03 07:33:05;;;;;;;49.60;26.42;;;5.70;99.90;;;;;;4198178;28;20047;-75
2020/12/03 07:35:29;;;;;;;55.95;25.55;;;5.80;99.90;;;;;;4207649;28;20042;-75
2020/12/03 07:37:50;;;;;;;53.35;24.30;;;5.80;99.90;;;;;;4198193;28;20041;-74
2020/12/03 07:39:51;;;;;;;45.42;24.98;;;5.70;99.90;;;;;;4209178;28;20189;-75
2020/12/03 07:41:59;;;;;;;52.17;26.98;;;5.70;99.90;;;;;;4189824;28;20479;-75
2020/12/03 07:44:18;;;;;;;52.33;27.02;;;5.70;99.90;;;;;;4200406;28;20391;-75
2020/12/03 07:46:27;;;;;;;54.85;28.30;;;5.70;99.90;;;;;;4190015;28;20037;-75
2020/12/03 07:48:30;;;;;;;57.47;26.90;;;5.70;99.90;;;;;;4193120;28;20364;-75
2020/12/03 07:50:43;;;;;;;52.63;29.38;;;5.70;99.90;;;;;;4204701;28;20035;-75
2020/12/03 07:52:43;;;;;;;53.35;28.00;;;5.80;99.90;;;;;;4202169;28;20035;-75
2020/12/03 07:54:44;;;;;;;69.20;29.70;;;5.70;99.90;;;;;;4203729;28;20487;-75
2020/12/03 07:56:47;;;;;;;62.20;28.17;;;5.70;99.90;;;;;;4209166;28;20391;-75
2020/12/03 07:58:47;;;;;;;64.43;30.95;;;5.70;99.90;;;;;;4201292;28;20017;-75
2020/12/03 08:00:51;;;;;;;65.25;32.25;;;5.70;99.90;;;;;;4200805;28;20079;-75
2020/12/03 08:02:55;;;;;;;61.35;31.25;;;5.80;99.90;;;;;;4187935;28;20052;-75
2020/12/03 08:04:55;;;;;;;57.45;29.02;;;5.80;99.90;;;;;;4207586;28;20480;-75
2020/12/03 08:07:02;;;;;;;58.75;29.00;;;5.80;99.90;;;;;;4210966;28;20033;-75
2020/12/03 08:09:03;;;;;;;61.95;31.27;;;5.80;99.90;;;;;;4192223;28;20036;-75
2020/12/03 08:11:05;;;;;;;43.15;26.02;;;5.80;99.90;;;;;;4192421;28;20029;-75
2020/12/03 08:13:14;;;;;;;53.78;29.25;;;5.80;99.90;;;;;;4209651;28;20024;-75
2020/12/03 08:15:33;;;;;;;56.08;27.42;;;5.80;99.90;;;;;;4206406;28;20045;-75
2020/12/03 08:17:36;;;;;;;43.50;25.77;;;5.80;99.90;;;;;;4197930;28;20020;-74
2020/12/03 08:19:38;;;;;;;50.22;27.65;;;5.80;99.90;;;;;;4208490;28;20028;-74
2020/12/03 08:21:40;;;;;;;37.85;22.20;;;5.80;99.90;;;;;;4214835;28;20103;-75
2020/12/03 08:23:49;;;;;;;49.50;24.95;;;5.80;99.90;;;;;;4191428;28;20112;-75
2020/12/03 08:25:50;;;;;;;49.13;24.92;;;5.80;99.90;;;;;;4183726;28;20036;-75
2020/12/03 08:28:00;;;;;;;49.88;25.77;;;5.90;99.90;;;;;;4201915;28;20032;-74
2020/12/03 08:30:00;;;;;;;41.05;24.15;;;5.90;99.90;;;;;;4204563;28;20041;-74
2020/12/03 08:32:01;;;;;;;43.25;23.63;;;5.90;99.90;;;;;;4197232;28;20060;-77
2020/12/03 08:34:02;;;;;;;41.00;23.40;;;5.90;99.90;;;;;;4197418;28;20147;-76
2020/12/03 08:36:05;;;;;;;40.38;22.98;;;5.90;99.90;;;;;;4207449;28;20032;-75
2020/12/03 08:38:08;;;;;;;39.72;22.95;;;5.90;99.90;;;;;;4185679;28;20078;-76
2020/12/03 08:40:08;;;;;;;41.88;23.45;;;6.00;99.90;;;;;;4206811;28;20027;-74
2020/12/03 08:42:11;;;;;;;44.15;24.60;;;6.00;99.90;;;;;;4192101;28;20048;-74
2020/12/03 08:44:15;;;;;;;41.47;24.08;;;5.90;99.90;;;;;;4193360;28;20633;-75
2020/12/03 08:46:19;;;;;;;;;;;6.00;99.90;;;;;;4206712;28;20029;-75
2020/12/03 08:48:26;;;;;;;44.40;23.40;;;5.90;99.90;;;;;;4202762;28;19913;-75
2020/12/03 08:50:27;;;;;;;42.55;24.77;;;5.90;99.90;;;;;;4190745;28;20044;-75
2020/12/03 08:52:31;;;;;;;46.03;24.73;;;5.90;99.90;;;;;;4193747;28;20040;-74
2020/12/03 08:54:32;;;;;;;38.25;21.77;;;6.00;99.90;;;;;;4211875;28;20040;-75
2020/12/03 08:56:38;;;;;;;38.95;25.42;;;6.00;99.90;;;;;;4193660;28;20036;-74
2020/12/03 08:58:43;;;;;;;42.00;23.42;;;6.00;99.90;;;;;;4189218;28;20048;-74
2020/12/03 09:00:46;;;;;;;51.72;25.27;;;6.00;99.90;;;;;;4195142;28;20032;-74
2020/12/03 09:02:47;;;;;;;34.27;21.20;;;6.00;99.90;;;;;;4214097;28;20105;-74
2020/12/03 09:04:55;;;;;;;44.40;24.75;;;6.00;99.90;;;;;;4213971;28;20031;-74
2020/12/03 09:06:57;;;;;;;53.38;26.13;;;6.00;99.90;;;;;;4212445;28;20111;-75
2020/12/03 09:09:01;;;;;;;44.45;25.30;;;6.00;99.90;;;;;;4201174;28;20032;-74
2020/12/03 09:11:02;;;;;;;46.22;24.73;;;6.00;99.90;;;;;;4200326;28;20020;-76
2020/12/03 09:13:03;;;;;;;38.92;23.10;;;6.00;99.90;;;;;;4207022;28;20024;-74
2020/12/03 09:15:06;;;;;;;41.95;24.63;;;6.00;99.90;;;;;;4208984;28;20032;-75
2020/12/03 09:17:11;;;;;;;42.95;22.38;;;6.00;99.90;;;;;;4212706;28;20031;-75
2020/12/03 09:19:21;;;;;;;42.88;23.67;;;6.00;99.90;;;;;;4206548;28;20029;-75
2020/12/03 09:21:29;;;;;;;41.25;24.30;;;6.00;99.90;;;;;;4203285;28;20115;-74
2020/12/03 09:23:32;;;;;;;42.42;25.30;;;6.00;99.90;;;;;;4201023;28;20040;-75
2020/12/03 09:25:33;;;;;;;44.22;23.38;;;6.00;99.90;;;;;;4198717;28;20020;-75
2020/12/03 09:27:42;;;;;;;37.05;21.90;;;6.10;99.90;;;;;;4205237;28;20157;-75
2020/12/03 09:29:52;;;;;;;36.30;21.48;;;6.10;99.90;;;;;;4197317;28;20036;-74
2020/12/03 09:32:04;;;;;;;34.63;20.30;;;6.20;99.90;;;;;;4202636;28;20085;-74
2020/12/03 09:34:07;;;;;;;36.78;21.50;;;6.20;99.90;;;;;;4209457;28;20056;-74
2020/12/03 09:36:10;;;;;;;35.60;21.05;;;6.20;99.90;;;;;;4186166;28;20416;-74
2020/12/03 09:38:13;;;;;;;29.83;18.75;;;6.30;99.90;;;;;;4187945;28;20503;-74
2020/12/03 09:40:16;;;;;;;34.53;20.38;;;6.30;99.90;;;;;;4213153;28;20036;-75
2020/12/03 09:42:17;;;;;;;36.97;19.93;;;6.30;99.90;;;;;;4212765;28;20048;-75
2020/12/03 09:44:19;;;;;;;30.25;19.80;;;6.30;99.90;;;;;;4209614;28;20279;-75
2020/12/03 09:46:26;;;;;;;32.83;19.33;;;6.30;99.90;;;;;;4194588;28;20032;-75
2020/12/03 09:48:28;;;;;;;30.70;20.88;;;6.40;99.90;;;;;;4204010;28;20036;-74
2020/12/03 09:50:29;;;;;;;37.42;20.98;;;6.40;99.90;;;;;;4186844;28;20055;-75
2020/12/03 09:52:35;;;;;;;33.15;18.83;;;6.40;99.90;;;;;;4206269;28;20032;-75
2020/12/03 09:54:36;;;;;;;31.58;19.27;;;6.30;99.90;;;;;;4211017;28;20494;-75
2020/12/03 09:56:38;;;;;;;32.22;19.73;;;6.30;99.90;;;;;;4199907;28;20030;-75
2020/12/03 09:58:38;;;;;;;30.60;19.25;;;6.30;99.90;;;;;;4204286;28;20378;-75
2020/12/03 10:00:43;;;;;;;31.63;21.70;;;6.30;99.90;;;;;;4211267;28;20020;-75
2020/12/03 10:03:12;;;;;;;31.85;19.95;;;6.20;99.90;;;;;;4212787;28;20036;-75
2020/12/03 10:05:23;;;;;;;32.33;19.08;;;6.20;99.90;;;;;;4200642;28;20051;-74
2020/12/03 10:07:48;;;;;;;31.58;19.10;;;6.10;99.90;;;;;;4197044;28;20623;-74
2020/12/03 10:10:13;;;;;;;32.72;20.90;;;6.10;99.90;;;;;;4194802;28;20037;-75
2020/12/03 10:12:43;;;;;;;33.05;20.52;;;6.10;99.90;;;;;;4202981;28;20035;-74
2020/12/03 10:15:13;;;;;;;29.70;19.38;;;6.10;99.90;;;;;;4203976;28;20587;-75
2020/12/03 10:17:18;;;;;;;29.40;17.83;;;6.10;99.90;;;;;;4196472;28;20043;-74
2020/12/03 10:19:21;;;;;;;31.98;19.58;;;6.10;99.90;;;;;;4186445;28;20032;-74
2020/12/03 10:21:26;;;;;;;39.95;22.13;;;6.00;99.90;;;;;;4211887;28;20089;-74
2020/12/03 10:23:42;;;;;;;32.22;22.17;;;6.10;99.90;;;;;;4209649;28;20119;-74
2020/12/03 10:25:53;;;;;;;40.45;22.08;;;6.10;99.90;;;;;;4201730;28;20475;-75
2020/12/03 10:28:26;;;;;;;33.10;21.52;;;6.10;99.90;;;;;;4198624;28;20023;-73
2020/12/03 10:30:34;;;;;;;35.25;22.83;;;6.10;99.90;;;;;;4206526;28;20024;-76
2020/12/03 10:32:45;;;;;;;39.90;23.15;;;6.10;99.90;;;;;;4200765;28;20025;-74
2020/12/03 10:34:47;;;;;;;37.90;23.38;;;6.10;99.90;;;;;;4190564;28;20755;-75
2020/12/03 10:36:50;;;;;;;37.95;24.00;;;6.20;99.90;;;;;;4211439;28;20126;-75
2020/12/03 10:38:53;;;;;;;41.25;24.55;;;6.10;99.90;;;;;;4203096;28;20107;-75
2020/12/03 10:40:54;;;;;;;44.05;24.20;;;6.20;99.90;;;;;;4189923;28;20104;-75
2020/12/03 10:43:08;;;;;;;37.25;23.80;;;6.10;99.90;;;;;;4204755;28;20116;-74
2020/12/03 10:45:17;;;;;;;41.40;23.95;;;6.20;99.90;;;;;;4202457;28;20036;-73
2020/12/03 10:47:21;;;;;;;32.88;21.92;;;6.20;99.90;;;;;;4194087;28;20048;-73
2020/12/03 10:49:24;;;;;;;52.58;26.45;;;6.10;99.90;;;;;;4201521;28;20046;-72
2020/12/03 10:51:25;;;;;;;36.75;22.20;;;6.20;99.90;;;;;;4209397;28;20048;-73
2020/12/03 10:53:28;;;;;;;47.30;23.33;;;6.20;99.90;;;;;;4199839;28;20031;-75